createdAt,value
2017-07-26T00:00:37.050Z,99.99
2017-07-26T00:01:36.737Z,99.99
2017-07-26T00:02:36.715Z,99.99
2017-07-26T00:03:37.005Z,99.99
2017-07-26T00:04:36.991Z,99.99
2017-07-26T00:05:36.974Z,99.99
2017-07-26T00:06:36.657Z,99.99
2017-07-26T00:07:36.633Z,99.99
2017-07-26T00:08:36.922Z,99.99
2017-07-26T00:09:36.908Z,99.99
2017-07-26T00:10:36.891Z,99.99
2017-07-26T00:11:36.579Z,99.99
2017-07-26T00:12:36.859Z,99.99
2017-07-26T00:13:36.840Z,99.99
2017-07-26T00:14:36.828Z,99.99
2017-07-26T00:15:36.801Z,99.99
2017-07-26T00:16:36.495Z,99.99
2017-07-26T00:17:36.481Z,99.99
2017-07-26T00:18:36.761Z,99.99
2017-07-26T00:19:36.747Z,99.99
2017-07-26T00:20:36.520Z,99.99
2017-07-26T00:21:36.710Z,99.99
2017-07-26T00:22:36.399Z,99.99
2017-07-26T00:23:36.680Z,99.99
2017-07-26T00:24:36.659Z,99.99
2017-07-26T00:25:36.659Z,99.99
2017-07-26T00:26:36.328Z,99.99
2017-07-26T00:27:36.303Z,99.99
2017-07-26T00:28:36.591Z,99.99
2017-07-26T00:29:36.280Z,99.99
2017-07-26T00:30:36.572Z,99.99
2017-07-26T00:31:36.554Z,99.99
2017-07-26T00:32:36.249Z,99.99
2017-07-26T00:33:36.220Z,99.99
2017-07-26T00:34:36.519Z,99.99
2017-07-26T00:35:36.489Z,99.99
2017-07-26T00:36:36.159Z,99.99
2017-07-26T00:37:36.149Z,99.99
2017-07-26T00:38:36.456Z,99.99
2017-07-26T00:39:36.129Z,99.99
2017-07-26T00:40:36.413Z,99.99
2017-07-26T00:41:36.084Z,99.99
2017-07-26T00:42:36.374Z,99.99
2017-07-26T00:43:36.359Z,99.99
2017-07-26T00:44:36.050Z,99.99
2017-07-26T00:45:36.332Z,99.99
2017-07-26T00:46:36.307Z,99.99
2017-07-26T00:47:36.009Z,99.99
2017-07-26T00:48:36.281Z,99.99
2017-07-26T00:49:36.260Z,99.99
2017-07-26T00:50:36.238Z,99.99
2017-07-26T00:51:36.241Z,99.99
2017-07-26T00:52:36.219Z,99.99
2017-07-26T00:53:35.890Z,99.99
2017-07-26T00:54:36.213Z,99.99
2017-07-26T00:55:36.170Z,99.99
2017-07-26T00:56:36.149Z,99.99
2017-07-26T00:57:36.140Z,99.99
2017-07-26T00:58:36.130Z,99.99
2017-07-26T00:59:36.111Z,99.99
2017-07-26T01:00:36.110Z,99.99
2017-07-26T01:01:36.083Z,99.99
2017-07-26T01:02:35.758Z,99.99
2017-07-26T01:03:36.032Z,99.99
2017-07-26T01:04:36.037Z,99.99
2017-07-26T01:05:36.022Z,99.99
2017-07-26T01:06:36.012Z,99.99
2017-07-26T01:07:36.084Z,99.99
2017-07-26T01:08:35.970Z,99.99
2017-07-26T01:09:35.941Z,99.99
2017-07-26T01:10:35.942Z,99.99
2017-07-26T01:11:35.913Z,99.99
2017-07-26T01:12:35.900Z,99.99
2017-07-26T01:13:35.575Z,99.99
2017-07-26T01:14:35.866Z,99.99
2017-07-26T01:15:35.861Z,99.99
2017-07-26T01:16:35.833Z,99.99
2017-07-26T01:17:35.824Z,99.99
2017-07-26T01:18:35.491Z,99.99
2017-07-26T01:19:35.470Z,99.99
2017-07-26T01:20:35.769Z,99.99
2017-07-26T01:21:35.761Z,99.99
2017-07-26T01:22:35.434Z,99.99
2017-07-26T01:23:35.719Z,99.99
2017-07-26T01:24:35.706Z,99.99
2017-07-26T01:25:35.679Z,99.99
2017-07-26T01:26:35.657Z,99.99
2017-07-26T01:27:35.647Z,99.99
2017-07-26T01:28:35.328Z,99.99
2017-07-26T01:29:35.316Z,99.99
2017-07-26T01:30:35.611Z,99.99
2017-07-26T01:31:35.580Z,99.99
2017-07-26T01:32:35.567Z,99.99
2017-07-26T01:33:35.559Z,99.99
2017-07-26T01:34:35.540Z,99.99
2017-07-26T01:35:35.518Z,99.99
2017-07-26T01:36:35.528Z,99.99
2017-07-26T01:37:35.500Z,99.99
2017-07-26T01:38:35.169Z,99.99
2017-07-26T01:39:35.460Z,99.99
2017-07-26T01:40:35.440Z,99.99
2017-07-26T01:41:35.442Z,99.99
2017-07-26T01:42:35.424Z,99.99
2017-07-26T01:43:35.397Z,99.99
2017-07-26T01:44:35.382Z,99.99
2017-07-26T01:45:35.373Z,99.99
2017-07-26T01:46:35.039Z,99.99
2017-07-26T01:47:35.326Z,99.99
2017-07-26T01:48:35.309Z,99.99
2017-07-26T01:49:34.990Z,99.99
2017-07-26T01:50:34.980Z,99.99
2017-07-26T01:51:35.266Z,99.99
2017-07-26T01:52:35.252Z,99.99
2017-07-26T01:53:34.934Z,99.99
2017-07-26T01:54:34.913Z,99.99
2017-07-26T01:55:34.899Z,99.99
2017-07-26T01:56:35.187Z,99.99
2017-07-26T01:57:35.170Z,99.99
2017-07-26T01:58:34.850Z,99.99
2017-07-26T01:59:35.149Z,99.99
2017-07-26T02:00:35.122Z,99.99
2017-07-26T02:01:35.109Z,99.99
2017-07-26T02:02:34.782Z,99.99
2017-07-26T02:03:35.069Z,99.99
2017-07-26T02:04:35.059Z,99.99
2017-07-26T02:05:34.740Z,99.99
2017-07-26T02:06:35.019Z,99.99
2017-07-26T02:07:34.705Z,99.99
2017-07-26T02:08:35.003Z,99.99
2017-07-26T02:09:34.979Z,99.99
2017-07-26T02:10:34.659Z,99.99
2017-07-26T02:11:34.949Z,99.99
2017-07-26T02:12:34.930Z,99.99
2017-07-26T02:13:34.907Z,99.99
2017-07-26T02:14:34.600Z,99.99
2017-07-26T02:15:34.592Z,99.99
2017-07-26T02:16:34.568Z,99.99
2017-07-26T02:17:34.851Z,99.99
2017-07-26T02:18:34.836Z,99.99
2017-07-26T02:19:34.851Z,99.99
2017-07-26T02:20:34.799Z,99.99
2017-07-26T02:21:34.790Z,99.99
2017-07-26T02:22:34.770Z,99.99
2017-07-26T02:23:34.760Z,99.99
2017-07-26T02:24:34.739Z,99.99
2017-07-26T02:25:34.729Z,99.99
2017-07-26T02:26:34.398Z,99.99
2017-07-26T02:27:34.687Z,99.99
2017-07-26T02:28:34.379Z,99.99
2017-07-26T02:29:34.663Z,99.99
2017-07-26T02:30:34.650Z,99.99
2017-07-26T02:31:34.331Z,99.99
2017-07-26T02:32:34.310Z,99.99
2017-07-26T02:33:34.290Z,99.99
2017-07-26T02:34:34.285Z,99.99
2017-07-26T02:35:34.560Z,99.99
2017-07-26T02:36:34.244Z,99.99
2017-07-26T02:37:34.537Z,99.99
2017-07-26T02:38:34.517Z,99.99
2017-07-26T02:39:34.512Z,99.99
2017-07-26T02:40:34.489Z,99.99
2017-07-26T02:41:34.471Z,99.99
2017-07-26T02:42:34.450Z,99.99
2017-07-26T02:43:34.449Z,99.99
2017-07-26T02:44:34.430Z,99.99
2017-07-26T02:45:34.398Z,99.99
2017-07-26T02:46:34.079Z,99.99
2017-07-26T02:47:34.069Z,99.99
2017-07-26T02:48:34.363Z,99.99
2017-07-26T02:49:34.031Z,99.99
2017-07-26T02:50:34.024Z,99.99
2017-07-26T02:51:34.003Z,99.99
2017-07-26T02:52:34.289Z,99.99
2017-07-26T02:53:34.267Z,99.99
2017-07-26T02:54:34.261Z,99.99
2017-07-26T02:55:34.260Z,99.99
2017-07-26T02:56:34.230Z,99.99
2017-07-26T02:57:33.949Z,99.99
2017-07-26T02:58:34.197Z,99.99
2017-07-26T02:59:33.888Z,99.99
2017-07-26T03:00:33.860Z,99.99
2017-07-26T03:01:34.149Z,99.99
2017-07-26T03:02:33.831Z,99.99
2017-07-26T03:03:33.859Z,99.99
2017-07-26T03:04:34.098Z,99.99
2017-07-26T03:05:34.088Z,99.99
2017-07-26T03:06:33.761Z,99.99
2017-07-26T03:07:34.052Z,99.99
2017-07-26T03:08:34.038Z,99.99
2017-07-26T03:09:33.730Z,99.99
2017-07-26T03:10:33.708Z,99.99
2017-07-26T03:11:33.990Z,99.99
2017-07-26T03:12:33.670Z,99.99
2017-07-26T03:13:33.969Z,99.99
2017-07-26T03:14:33.961Z,99.99
2017-07-26T03:15:33.628Z,99.99
2017-07-26T03:16:33.917Z,99.99
2017-07-26T03:17:33.909Z,99.99
2017-07-26T03:18:33.874Z,99.99
2017-07-26T03:19:33.885Z,99.99
2017-07-26T03:20:33.857Z,99.99
2017-07-26T03:21:33.837Z,99.99
2017-07-26T03:22:33.818Z,99.99
2017-07-26T03:23:33.797Z,99.99
2017-07-26T03:24:33.792Z,99.99
2017-07-26T03:25:33.767Z,99.99
2017-07-26T03:26:33.780Z,99.99
2017-07-26T03:27:33.735Z,99.99
2017-07-26T03:28:33.751Z,99.99
2017-07-26T03:29:33.700Z,99.99
2017-07-26T03:30:33.699Z,99.99
2017-07-26T03:31:33.679Z,99.99
2017-07-26T03:32:33.660Z,99.99
2017-07-26T03:33:33.647Z,99.99
2017-07-26T03:34:33.631Z,99.99
2017-07-26T03:35:33.608Z,99.99
2017-07-26T03:36:33.599Z,99.99
2017-07-26T03:37:33.580Z,99.99
2017-07-26T03:38:33.270Z,99.99
2017-07-26T03:39:33.545Z,99.99
2017-07-26T03:40:33.530Z,99.99
2017-07-26T03:41:33.520Z,99.99
2017-07-26T03:42:33.501Z,99.99
2017-07-26T03:43:33.490Z,99.99
2017-07-26T03:44:33.474Z,99.99
2017-07-26T03:45:33.456Z,99.99
2017-07-26T03:46:33.441Z,99.99
2017-07-26T03:47:33.416Z,99.99
2017-07-26T03:48:33.399Z,99.99
2017-07-26T03:49:33.382Z,99.99
2017-07-26T03:50:33.361Z,99.99
2017-07-26T03:51:33.356Z,99.99
2017-07-26T03:52:33.031Z,99.99
2017-07-26T03:53:33.017Z,99.99
2017-07-26T03:54:33.309Z,99.99
2017-07-26T03:55:33.288Z,99.99
2017-07-26T03:56:33.281Z,99.99
2017-07-26T03:57:33.258Z,99.99
2017-07-26T03:58:32.947Z,99.99
2017-07-26T03:59:33.220Z,99.99
2017-07-26T04:00:33.221Z,99.99
2017-07-26T04:01:32.893Z,99.99
2017-07-26T04:02:33.180Z,99.99
2017-07-26T04:03:33.184Z,99.99
2017-07-26T04:04:33.149Z,99.99
2017-07-26T04:05:32.830Z,99.99
2017-07-26T04:06:33.110Z,99.99
2017-07-26T04:07:33.149Z,99.99
2017-07-26T04:08:33.087Z,99.99
2017-07-26T04:09:33.104Z,99.99
2017-07-26T04:10:33.046Z,99.99
2017-07-26T04:11:33.039Z,99.99
2017-07-26T04:12:33.017Z,99.99
2017-07-26T04:13:33.059Z,99.99
2017-07-26T04:14:32.978Z,99.99
2017-07-26T04:15:32.665Z,99.99
2017-07-26T04:16:32.655Z,99.99
2017-07-26T04:17:32.945Z,99.99
2017-07-26T04:18:32.921Z,99.99
2017-07-26T04:19:32.913Z,99.99
2017-07-26T04:20:32.579Z,99.99
2017-07-26T04:21:32.879Z,99.99
2017-07-26T04:22:32.553Z,99.99
2017-07-26T04:23:32.861Z,99.99
2017-07-26T04:24:32.521Z,99.99
2017-07-26T04:25:32.809Z,99.99
2017-07-26T04:26:32.799Z,99.99
2017-07-26T04:27:32.773Z,99.99
2017-07-26T04:28:32.772Z,99.99
2017-07-26T04:29:32.749Z,99.99
2017-07-26T04:30:32.419Z,99.99
2017-07-26T04:31:32.722Z,99.99
2017-07-26T04:32:32.699Z,99.99
2017-07-26T04:33:32.682Z,99.99
2017-07-26T04:34:32.358Z,99.99
2017-07-26T04:35:32.639Z,99.99
2017-07-26T04:36:32.635Z,99.99
2017-07-26T04:37:32.616Z,99.99
2017-07-26T04:38:32.641Z,99.99
2017-07-26T04:39:32.589Z,99.99
2017-07-26T04:40:32.601Z,99.99
2017-07-26T04:41:32.570Z,99.99
2017-07-26T04:42:32.546Z,99.99
2017-07-26T04:43:32.518Z,99.99
2017-07-26T04:44:32.509Z,99.99
2017-07-26T04:45:32.489Z,99.99
2017-07-26T04:46:32.489Z,99.99
2017-07-26T04:47:32.470Z,99.99
2017-07-26T04:48:32.440Z,99.99
2017-07-26T04:49:32.131Z,99.99
2017-07-26T04:50:32.428Z,99.99
2017-07-26T04:51:32.089Z,99.99
2017-07-26T04:52:32.382Z,99.99
2017-07-26T04:53:32.369Z,99.99
2017-07-26T04:54:32.349Z,99.99
2017-07-26T04:55:32.330Z,99.99
2017-07-26T04:56:32.006Z,99.99
2017-07-26T04:57:32.311Z,99.99
2017-07-26T04:58:32.289Z,99.99
2017-07-26T04:59:32.270Z,99.99
2017-07-26T05:00:31.939Z,99.99
2017-07-26T05:01:32.235Z,99.99
2017-07-26T05:02:32.224Z,99.99
2017-07-26T05:03:32.210Z,99.99
2017-07-26T05:04:31.991Z,99.99
2017-07-26T05:05:32.168Z,99.99
2017-07-26T05:06:31.859Z,99.99
2017-07-26T05:07:32.139Z,99.99
2017-07-26T05:08:32.119Z,99.99
2017-07-26T05:09:32.109Z,99.99
2017-07-26T05:10:32.089Z,99.99
2017-07-26T05:11:32.080Z,99.99
2017-07-26T05:12:32.069Z,99.99
2017-07-26T05:13:32.050Z,99.99
2017-07-26T05:14:32.019Z,99.99
2017-07-26T05:15:32.015Z,99.99
2017-07-26T05:16:31.688Z,99.99
2017-07-26T05:17:31.977Z,99.99
2017-07-26T05:18:31.958Z,99.99
2017-07-26T05:19:31.639Z,99.99
2017-07-26T05:20:31.630Z,99.99
2017-07-26T05:21:31.609Z,99.99
2017-07-26T05:22:31.608Z,99.99
2017-07-26T05:23:31.574Z,99.99
2017-07-26T05:24:31.862Z,99.99
2017-07-26T05:25:31.859Z,99.99
2017-07-26T05:26:31.548Z,99.99
2017-07-26T05:27:31.508Z,99.99
2017-07-26T05:28:31.808Z,99.99
2017-07-26T05:29:31.786Z,99.99
2017-07-26T05:30:31.779Z,99.99
2017-07-26T05:31:31.769Z,99.99
2017-07-26T05:32:31.442Z,99.99
2017-07-26T05:33:31.728Z,99.99
2017-07-26T05:34:31.709Z,99.99
2017-07-26T05:35:31.389Z,99.99
2017-07-26T05:36:31.678Z,99.99
2017-07-26T05:37:31.668Z,99.99
2017-07-26T05:38:31.647Z,99.99
2017-07-26T05:39:31.658Z,99.99
2017-07-26T05:40:31.618Z,99.99
2017-07-26T05:41:31.299Z,99.99
2017-07-26T05:42:31.579Z,99.99
2017-07-26T05:43:31.569Z,99.99
2017-07-26T05:44:31.261Z,99.99
2017-07-26T05:45:31.539Z,99.99
2017-07-26T05:46:31.208Z,99.99
2017-07-26T05:47:31.508Z,99.99
2017-07-26T05:48:31.479Z,99.99
2017-07-26T05:49:31.469Z,99.99
2017-07-26T05:50:31.458Z,99.99
2017-07-26T05:51:31.441Z,99.99
2017-07-26T05:52:31.420Z,99.99
2017-07-26T05:53:31.416Z,99.99
2017-07-26T05:54:31.402Z,99.99
2017-07-26T05:55:31.070Z,99.99
2017-07-26T05:56:31.365Z,99.99
2017-07-26T05:57:31.360Z,99.99
2017-07-26T05:58:31.340Z,99.99
2017-07-26T05:59:31.320Z,99.99
2017-07-26T06:00:31.309Z,99.99
2017-07-26T06:01:31.301Z,99.99
2017-07-26T06:02:31.289Z,99.99
2017-07-26T06:03:31.257Z,99.99
2017-07-26T06:04:30.939Z,99.99
2017-07-26T06:05:31.228Z,99.99
2017-07-26T06:06:31.244Z,99.99
2017-07-26T06:07:31.202Z,99.99
2017-07-26T06:08:31.191Z,99.99
2017-07-26T06:09:31.171Z,99.99
2017-07-26T06:10:31.162Z,99.99
2017-07-26T06:11:31.144Z,99.99
2017-07-26T06:12:31.120Z,99.99
2017-07-26T06:13:31.120Z,99.99
2017-07-26T06:14:31.202Z,99.99
2017-07-26T06:15:31.084Z,99.99
2017-07-26T06:16:31.072Z,99.99
2017-07-26T06:17:31.050Z,99.99
2017-07-26T06:18:31.029Z,99.99
2017-07-26T06:19:31.026Z,99.99
2017-07-26T06:20:30.802Z,99.99
2017-07-26T06:21:30.684Z,99.99
2017-07-26T06:22:31.019Z,99.99
2017-07-26T06:23:30.959Z,99.99
2017-07-26T06:24:30.940Z,99.99
2017-07-26T06:25:30.927Z,99.99
2017-07-26T06:26:30.961Z,99.99
2017-07-26T06:27:30.901Z,99.99
2017-07-26T06:28:30.898Z,99.99
2017-07-26T06:29:30.877Z,99.99
2017-07-26T06:30:30.868Z,99.99
2017-07-26T06:31:30.869Z,99.99
2017-07-26T06:32:30.529Z,99.99
2017-07-26T06:33:30.821Z,99.99
2017-07-26T06:34:30.499Z,99.99
2017-07-26T06:35:30.858Z,99.99
2017-07-26T06:36:30.776Z,99.99
2017-07-26T06:37:30.759Z,99.99
2017-07-26T06:38:30.735Z,99.99
2017-07-26T06:39:30.418Z,99.99
2017-07-26T06:40:30.728Z,99.99
2017-07-26T06:41:30.699Z,99.99
2017-07-26T06:42:30.679Z,99.99
2017-07-26T06:43:30.678Z,99.99
2017-07-26T06:44:30.668Z,99.99
2017-07-26T06:45:30.639Z,99.99
2017-07-26T06:46:30.338Z,99.99
2017-07-26T06:47:30.617Z,99.99
2017-07-26T06:48:30.296Z,99.99
2017-07-26T06:49:30.278Z,99.99
2017-07-26T06:50:30.568Z,99.99
2017-07-26T06:51:30.248Z,99.99
2017-07-26T06:52:30.549Z,99.99
2017-07-26T06:53:30.558Z,99.99
2017-07-26T06:54:30.522Z,99.99
2017-07-26T06:55:30.499Z,99.99
2017-07-26T06:56:30.481Z,99.99
2017-07-26T06:57:30.160Z,99.99
2017-07-26T06:58:30.456Z,99.99
2017-07-26T06:59:30.146Z,99.99
2017-07-26T07:00:30.121Z,99.99
2017-07-26T07:01:30.131Z,99.99
2017-07-26T07:02:30.399Z,99.99
2017-07-26T07:03:30.100Z,99.99
2017-07-26T07:04:30.370Z,99.99
2017-07-26T07:05:30.059Z,99.99
2017-07-26T07:06:30.341Z,99.99
2017-07-26T07:07:30.331Z,99.99
2017-07-26T07:08:30.317Z,99.99
2017-07-26T07:09:30.003Z,99.99
2017-07-26T07:10:30.287Z,99.99
2017-07-26T07:11:30.278Z,99.99
2017-07-26T07:12:30.267Z,99.99
2017-07-26T07:13:30.249Z,99.99
2017-07-26T07:14:30.239Z,99.99
2017-07-26T07:15:30.224Z,99.99
2017-07-26T07:16:30.208Z,99.99
2017-07-26T07:17:30.189Z,99.99
2017-07-26T07:18:30.184Z,99.99
2017-07-26T07:19:29.859Z,99.99
2017-07-26T07:20:30.148Z,99.99
2017-07-26T07:21:30.139Z,99.99
2017-07-26T07:22:30.125Z,99.99
2017-07-26T07:23:29.807Z,99.99
2017-07-26T07:24:29.788Z,99.99
2017-07-26T07:25:30.080Z,99.99
2017-07-26T07:26:29.758Z,99.99
2017-07-26T07:27:29.752Z,99.99
2017-07-26T07:28:30.039Z,99.99
2017-07-26T07:29:30.029Z,99.99
2017-07-26T07:30:30.017Z,99.99
2017-07-26T07:31:29.687Z,99.99
2017-07-26T07:32:29.990Z,99.99
2017-07-26T07:33:29.977Z,99.99
2017-07-26T07:34:29.654Z,99.99
2017-07-26T07:35:29.938Z,99.99
2017-07-26T07:36:29.926Z,99.99
2017-07-26T07:37:29.921Z,99.99
2017-07-26T07:38:29.599Z,99.99
2017-07-26T07:39:29.891Z,99.99
2017-07-26T07:40:29.884Z,99.99
2017-07-26T07:41:29.557Z,99.99
2017-07-26T07:42:29.877Z,99.99
2017-07-26T07:43:29.839Z,99.99
2017-07-26T07:44:29.828Z,99.99
2017-07-26T07:45:29.808Z,99.99
2017-07-26T07:46:29.798Z,99.99
2017-07-26T07:47:29.797Z,99.99
2017-07-26T07:48:29.469Z,99.99
2017-07-26T07:49:29.464Z,99.99
2017-07-26T07:50:29.748Z,99.99
2017-07-26T07:51:29.745Z,99.99
2017-07-26T07:52:29.727Z,99.99
2017-07-26T07:53:29.398Z,99.99
2017-07-26T07:54:29.698Z,99.99
2017-07-26T07:55:29.689Z,99.99
2017-07-26T07:56:29.358Z,99.99
2017-07-26T07:57:29.670Z,99.99
2017-07-26T07:58:29.654Z,99.99
2017-07-26T07:59:29.638Z,99.99
2017-07-26T08:00:29.617Z,99.99
2017-07-26T08:01:29.607Z,99.99
2017-07-26T08:02:29.600Z,99.99
2017-07-26T08:03:29.586Z,99.99
2017-07-26T08:04:29.570Z,99.99
2017-07-26T08:05:29.250Z,99.99
2017-07-26T08:06:29.543Z,99.99
2017-07-26T08:07:29.223Z,99.99
2017-07-26T08:08:29.521Z,99.99
2017-07-26T08:09:29.534Z,99.99
2017-07-26T08:10:29.502Z,99.99
2017-07-26T08:11:29.491Z,99.99
2017-07-26T08:12:29.172Z,99.99
2017-07-26T08:13:29.460Z,99.99
2017-07-26T08:14:29.459Z,99.99
2017-07-26T08:15:29.438Z,99.99
2017-07-26T08:16:29.419Z,99.99
2017-07-26T08:17:29.109Z,99.99
2017-07-26T08:18:29.089Z,99.99
2017-07-26T08:19:29.389Z,99.99
2017-07-26T08:20:29.389Z,99.99
2017-07-26T08:21:29.358Z,99.99
2017-07-26T08:22:29.049Z,99.99
2017-07-26T08:23:29.349Z,99.99
2017-07-26T08:24:29.348Z,99.99
2017-07-26T08:25:29.319Z,99.99
2017-07-26T08:26:29.306Z,99.99
2017-07-26T08:27:29.002Z,99.99
2017-07-26T08:28:28.979Z,99.99
2017-07-26T08:29:28.972Z,99.99
2017-07-26T08:30:29.267Z,99.99
2017-07-26T08:31:28.972Z,98.78
2017-07-26T08:32:29.240Z,99.99
2017-07-26T08:33:29.253Z,99.99
2017-07-26T08:34:29.259Z,99.99
2017-07-26T08:35:28.917Z,99.41
2017-07-26T08:36:28.903Z,98.93
2017-07-26T08:37:28.890Z,97.47
2017-07-26T08:38:28.896Z,97.86
2017-07-26T08:39:29.181Z,97.81
2017-07-26T08:40:29.288Z,99.12
2017-07-26T08:41:29.170Z,96.99
2017-07-26T08:42:29.161Z,95.73
2017-07-26T08:43:29.168Z,94.47
2017-07-26T08:44:29.144Z,95.34
2017-07-26T08:45:29.132Z,94.52
2017-07-26T08:46:29.182Z,95.49
2017-07-26T08:47:29.122Z,95.29
2017-07-26T08:48:28.809Z,95.05
2017-07-26T08:49:29.105Z,94.09
2017-07-26T08:50:28.847Z,92
2017-07-26T08:51:29.089Z,90.69
2017-07-26T08:52:29.089Z,92.86
2017-07-26T08:53:28.780Z,90.2
2017-07-26T08:54:29.080Z,88.98
2017-07-26T08:55:28.759Z,87.08
2017-07-26T08:56:29.068Z,87.96
2017-07-26T08:57:29.059Z,87.03
2017-07-26T08:58:29.051Z,86.98
2017-07-26T08:59:29.063Z,86.19
2017-07-26T09:00:29.053Z,84.39
2017-07-26T09:01:29.040Z,84.82
2017-07-26T09:02:29.049Z,82.82
2017-07-26T09:03:29.030Z,84.03
2017-07-26T09:04:29.031Z,83.09
2017-07-26T09:05:29.041Z,80.85
2017-07-26T09:06:29.037Z,78.61
2017-07-26T09:07:29.021Z,80.04
2017-07-26T09:08:29.019Z,82.72
2017-07-26T09:09:29.020Z,82.97
2017-07-26T09:10:29.018Z,84.55
2017-07-26T09:11:29.019Z,87.07
2017-07-26T09:12:29.007Z,84.74
2017-07-26T09:13:29.109Z,84.35
2017-07-26T09:14:29.000Z,83.86
2017-07-26T09:15:29.010Z,85.47
2017-07-26T09:16:29.002Z,84.83
2017-07-26T09:17:29.012Z,84.83
2017-07-26T09:18:29.035Z,82.74
2017-07-26T09:19:29.079Z,84
2017-07-26T09:20:28.991Z,83.03
2017-07-26T09:21:29.002Z,82.74
2017-07-26T09:22:28.982Z,81.61
2017-07-26T09:23:28.978Z,81.26
2017-07-26T09:24:28.975Z,80.09
2017-07-26T09:25:28.974Z,78.58
2017-07-26T09:26:28.972Z,78.83
2017-07-26T09:27:28.661Z,80.44
2017-07-26T09:28:28.970Z,82.06
2017-07-26T09:29:28.650Z,82.4
2017-07-26T09:30:28.965Z,81.67
2017-07-26T09:31:28.971Z,79.96
2017-07-26T09:32:28.946Z,78.83
2017-07-26T09:33:28.946Z,79.06
2017-07-26T09:34:28.947Z,77.44
2017-07-26T09:35:28.643Z,76.82
2017-07-26T09:36:28.940Z,79.02
2017-07-26T09:37:28.946Z,79.22
2017-07-26T09:38:28.940Z,77.7
2017-07-26T09:39:28.931Z,77.5
2017-07-26T09:40:28.936Z,77.5
2017-07-26T09:41:28.931Z,77.91
2017-07-26T09:42:28.920Z,79.33
2017-07-26T09:43:28.928Z,81.43
2017-07-26T09:44:29.031Z,80.62
2017-07-26T09:45:28.605Z,81.39
2017-07-26T09:46:28.914Z,81.88
2017-07-26T09:47:28.964Z,81.49
2017-07-26T09:48:28.905Z,81.01
2017-07-26T09:49:28.961Z,81.35
2017-07-26T09:50:28.941Z,82.38
2017-07-26T09:51:28.912Z,81.84
2017-07-26T09:52:28.882Z,81.2
2017-07-26T09:53:28.911Z,81.59
2017-07-26T09:54:28.885Z,79.04
2017-07-26T09:55:28.866Z,78.27
2017-07-26T09:56:28.862Z,78.17
2017-07-26T09:57:28.555Z,78.94
2017-07-26T09:58:28.560Z,79.57
2017-07-26T09:59:28.561Z,76.88
2017-07-26T10:00:28.840Z,76.59
2017-07-26T10:01:28.840Z,75.03
2017-07-26T10:02:28.840Z,74.29
2017-07-26T10:03:28.834Z,75.07
2017-07-26T10:04:28.541Z,74.19
2017-07-26T10:05:28.835Z,75.07
2017-07-26T10:06:28.840Z,73.9
2017-07-26T10:07:28.819Z,74.29
2017-07-26T10:08:28.838Z,72.67
2017-07-26T10:09:28.828Z,73.45
2017-07-26T10:10:28.840Z,74.13
2017-07-26T10:11:28.798Z,73.65
2017-07-26T10:12:28.813Z,74.56
2017-07-26T10:13:28.920Z,74.91
2017-07-26T10:14:28.800Z,74.43
2017-07-26T10:15:28.811Z,75.01
2017-07-26T10:16:28.823Z,75.36
2017-07-26T10:17:28.789Z,75.32
2017-07-26T10:18:28.778Z,76.17
2017-07-26T10:19:28.537Z,76.81
2017-07-26T10:20:28.780Z,77.2
2017-07-26T10:21:28.782Z,77.45
2017-07-26T10:22:28.776Z,77.7
2017-07-26T10:23:28.762Z,79.25
2017-07-26T10:24:28.790Z,78.97
2017-07-26T10:25:28.750Z,78.71
2017-07-26T10:26:28.784Z,77.48
2017-07-26T10:27:28.783Z,76.26
2017-07-26T10:28:28.719Z,78.2
2017-07-26T10:29:28.723Z,77.6
2017-07-26T10:30:28.729Z,75.56
2017-07-26T10:31:28.730Z,75.79
2017-07-26T10:32:28.703Z,74.97
2017-07-26T10:33:28.700Z,74.74
2017-07-26T10:34:28.689Z,76.1
2017-07-26T10:35:28.679Z,77.82
2017-07-26T10:36:28.360Z,75.09
2017-07-26T10:37:28.698Z,75.23
2017-07-26T10:38:28.662Z,75.32
2017-07-26T10:39:28.339Z,75.52
2017-07-26T10:40:28.639Z,74.58
2017-07-26T10:41:28.642Z,73.55
2017-07-26T10:42:28.335Z,74.85
2017-07-26T10:43:28.315Z,73.52
2017-07-26T10:44:28.366Z,73.43
2017-07-26T10:45:28.608Z,74.98
2017-07-26T10:46:28.347Z,72.49
2017-07-26T10:47:28.609Z,72.19
2017-07-26T10:48:28.608Z,70.89
2017-07-26T10:49:28.280Z,72.47
2017-07-26T10:50:28.588Z,73.08
2017-07-26T10:51:28.268Z,74.8
2017-07-26T10:52:28.578Z,75.93
2017-07-26T10:53:28.552Z,76.48
2017-07-26T10:54:28.239Z,76.09
2017-07-26T10:55:28.549Z,76.28
2017-07-26T10:56:28.528Z,76.92
2017-07-26T10:57:28.223Z,77.28
2017-07-26T10:58:28.209Z,77.86
2017-07-26T10:59:28.200Z,79.55
2017-07-26T11:00:28.496Z,78.23
2017-07-26T11:01:28.538Z,77.55
2017-07-26T11:02:28.498Z,76.67
2017-07-26T11:03:28.173Z,74.67
2017-07-26T11:04:28.469Z,75.89
2017-07-26T11:05:28.459Z,75.05
2017-07-26T11:06:28.446Z,74.99
2017-07-26T11:07:28.508Z,74.99
2017-07-26T11:08:28.438Z,73.61
2017-07-26T11:09:28.126Z,73.51
2017-07-26T11:10:28.419Z,73.12
2017-07-26T11:11:28.413Z,73.84
2017-07-26T11:12:28.408Z,74.39
2017-07-26T11:13:28.392Z,74.04
2017-07-26T11:14:28.390Z,73.45
2017-07-26T11:15:28.378Z,72.22
2017-07-26T11:16:28.381Z,71.92
2017-07-26T11:17:28.371Z,73.39
2017-07-26T11:18:28.360Z,71.64
2017-07-26T11:19:28.352Z,72.9
2017-07-26T11:20:28.352Z,72.67
2017-07-26T11:21:28.346Z,71.27
2017-07-26T11:22:28.333Z,73.93
2017-07-26T11:23:28.342Z,73.93
2017-07-26T11:24:28.319Z,75.29
2017-07-26T11:25:28.307Z,74.12
2017-07-26T11:26:28.298Z,74.35
2017-07-26T11:27:28.291Z,71.56
2017-07-26T11:28:28.280Z,69.81
2017-07-26T11:29:28.279Z,72.44
2017-07-26T11:30:28.262Z,72.09
2017-07-26T11:31:27.958Z,70.04
2017-07-26T11:32:28.261Z,72.86
2017-07-26T11:33:27.938Z,70.92
2017-07-26T11:34:28.249Z,70.53
2017-07-26T11:35:28.231Z,71.6
2017-07-26T11:36:27.927Z,71.99
2017-07-26T11:37:28.209Z,70.37
2017-07-26T11:38:28.210Z,70.47
2017-07-26T11:39:28.208Z,71.89
2017-07-26T11:40:28.200Z,69.78
2017-07-26T11:41:28.188Z,68.13
2017-07-26T11:42:28.177Z,68.48
2017-07-26T11:43:28.169Z,68.09
2017-07-26T11:44:28.162Z,68.45
2017-07-26T11:45:28.148Z,69.03
2017-07-26T11:46:27.847Z,70.2
2017-07-26T11:47:28.138Z,70.43
2017-07-26T11:48:27.823Z,70.82
2017-07-26T11:49:28.139Z,70.14
2017-07-26T11:50:28.121Z,70.43
2017-07-26T11:51:27.806Z,72.64
2017-07-26T11:52:27.828Z,71.56
2017-07-26T11:53:28.091Z,70.59
2017-07-26T11:54:28.090Z,69.17
2017-07-26T11:55:28.078Z,68.77
2017-07-26T11:56:28.065Z,67.32
2017-07-26T11:57:27.759Z,66.93
2017-07-26T11:58:28.061Z,67.05
2017-07-26T11:59:27.741Z,69
2017-07-26T12:00:27.728Z,68.52
2017-07-26T12:01:28.031Z,68.45
2017-07-26T12:02:28.018Z,68.84
2017-07-26T12:03:27.713Z,68.29
2017-07-26T12:04:27.711Z,68.49
2017-07-26T12:05:27.697Z,68.49
2017-07-26T12:06:28.001Z,69.36
2017-07-26T12:07:27.681Z,69.04
2017-07-26T12:08:27.992Z,69.92
2017-07-26T12:09:27.975Z,68.39
2017-07-26T12:10:27.972Z,69.04
2017-07-26T12:11:27.962Z,69.13
2017-07-26T12:12:27.962Z,69
2017-07-26T12:13:27.972Z,68.32
2017-07-26T12:14:27.636Z,68.58
2017-07-26T12:15:27.941Z,68.97
2017-07-26T12:16:27.625Z,69.94
2017-07-26T12:17:27.916Z,69.81
2017-07-26T12:18:27.921Z,70.82
2017-07-26T12:19:27.594Z,70.47
2017-07-26T12:20:27.921Z,69.29
2017-07-26T12:21:27.882Z,69.2
2017-07-26T12:22:27.880Z,68.94
2017-07-26T12:23:27.563Z,69.04
2017-07-26T12:24:27.568Z,71.18
2017-07-26T12:25:27.551Z,69.72
2017-07-26T12:26:27.545Z,68.55
2017-07-26T12:27:27.550Z,68.52
2017-07-26T12:28:27.861Z,70.86
2017-07-26T12:29:27.829Z,69.1
2017-07-26T12:30:27.519Z,69.59
2017-07-26T12:31:27.817Z,71.6
2017-07-26T12:32:27.503Z,71.95
2017-07-26T12:33:27.803Z,72.44
2017-07-26T12:34:27.799Z,71.33
2017-07-26T12:35:27.791Z,71.56
2017-07-26T12:36:27.782Z,72.89
2017-07-26T12:37:27.467Z,71.62
2017-07-26T12:38:27.769Z,73.22
2017-07-26T12:39:27.450Z,70.68
2017-07-26T12:40:27.759Z,70.2
2017-07-26T12:41:27.438Z,70.53
2017-07-26T12:42:27.726Z,70.72
2017-07-26T12:43:27.417Z,67.7
2017-07-26T12:44:27.719Z,67.74
2017-07-26T12:45:27.707Z,66.96
2017-07-26T12:46:27.710Z,67.7
2017-07-26T12:47:27.690Z,66.76
2017-07-26T12:48:27.695Z,65.66
2017-07-26T12:49:27.370Z,65.26
2017-07-26T12:50:27.677Z,66.73
2017-07-26T12:51:27.360Z,66.86
2017-07-26T12:52:27.671Z,66.93
2017-07-26T12:53:27.654Z,66.73